Time;durP1;ratioP1;P1;durP2;ratioP2;P2;SDS_P1;SDS_P2;PMS_P1;PMS_P2;Temp;Humidity;BMP_temperature;BMP_pressure;BME280_temperature;BME280_humidity;BME280_pressure;Samples;Min_cycle;Max_cycle;Signal;HPM_P1;HPM_P2
2023/01/01 00:00:50;;;;;;;;;51.00;42.50;;;;;17.44;38.57;100634.34;5126822;27;8839;-78
2023/01/01 00:03:39;;;;;;;;;43.50;37.25;;;;;17.57;38.23;100632.44;5112629;27;8900;-78
2023/01/01 00:06:09;;;;;;;;;41.25;33.75;;;;;17.50;38.51;100634.28;5126851;27;9128;-79
2023/01/01 00:08:39;;;;;;;;;43.50;38.75;;;;;17.52;38.36;100640.44;5092975;27;8827;-78
2023/01/01 00:11:10;;;;;;;;;45.75;36.00;;;;;17.58;38.36;100631.56;5110073;27;8823;-77
2023/01/01 00:13:43;;;;;;;;;42.25;36.50;;;;;17.63;38.16;100629.72;5129260;27;8839;-80
2023/01/01 00:16:14;;;;;;;;;30.80;28.40;;;;;17.55;38.29;100628.94;5111088;27;9587;-78
2023/01/01 00:18:43;;;;;;;;;41.25;36.25;;;;;17.66;38.27;100634.13;5141985;27;9621;-78
2023/01/01 00:21:13;;;;;;;;;32.20;28.80;;;;;17.71;37.89;100632.25;5073023;28;8841;-78
2023/01/01 00:23:42;;;;;;;;;25.00;22.00;;;;;17.66;37.94;100627.06;5124844;28;8975;-77
2023/01/01 00:26:12;;;;;;;;;30.00;28.40;;;;;17.70;37.96;100633.19;5124936;28;8861;-78
2023/01/01 00:28:43;;;;;;;;;38.50;35.00;;;;;17.69;38.03;100631.41;5090499;28;8875;-79
2023/01/01 00:31:15;;;;;;;;;35.50;33.75;;;;;17.61;38.05;100622.72;5090845;28;8849;-78
2023/01/01 00:33:45;;;;;;;;;34.50;33.00;;;;;17.58;38.28;100628.03;5090103;28;8879;-78
2023/01/01 00:36:15;;;;;;;;;43.50;36.50;;;;;17.47;38.48;100622.91;5090843;28;9619;-80
2023/01/01 00:38:45;;;;;;;;;42.75;38.00;;;;;17.49;38.32;100626.41;5105251;27;8834;-78
2023/01/01 00:41:15;;;;;;;;;41.00;36.00;;;;;17.45;38.41;100620.28;5128339;27;8835;-78
2023/01/01 00:43:46;;;;;;;;;33.50;32.50;;;;;17.51;38.31;100624.63;5093283;27;8838;-77
2023/01/01 00:46:15;;;;;;;;;39.50;35.25;;;;;17.40;38.29;100634.41;5145511;27;8839;-78
2023/01/01 00:48:44;;;;;;;;;35.75;33.50;;;;;17.22;38.96;100636.34;5145413;27;8884;-78
2023/01/01 00:51:13;;;;;;;;;33.40;31.00;;;;;17.27;38.47;100644.19;5128912;27;8857;-78
2023/01/01 00:53:42;;;;;;;;;29.00;27.20;;;;;17.36;38.49;100646.75;5113231;27;8862;-79
2023/01/01 00:56:11;;;;;;;;;31.00;27.20;;;;;17.44;38.51;100636.13;5111363;27;8866;-78
2023/01/01 00:58:39;;;;;;;;;29.50;28.75;;;;;17.48;38.20;100641.31;5128034;27;8854;-78
2023/01/01 01:01:09;;;;;;;;;37.25;32.75;;;;;17.53;38.43;100638.66;5111111;27;8850;-78
2023/01/01 01:03:39;;;;;;;;;34.50;32.75;;;;;17.45;38.50;100637.88;5111113;27;8873;-78
2023/01/01 01:06:11;;;;;;;;;34.80;31.20;;;;;17.51;38.23;100643.94;5140614;27;8857;-78
2023/01/01 01:08:41;;;;;;;;;37.50;33.25;;;;;17.48;38.41;100645.72;5125385;28;8880;-78
2023/01/01 01:11:12;;;;;;;;;33.00;31.25;;;;;17.53;38.37;100647.44;5124605;28;8853;-78
2023/01/01 01:13:43;;;;;;;;;34.80;31.60;;;;;17.47;38.41;100636.97;5090617;28;8869;-77
2023/01/01 01:16:16;;;;;;;;;39.00;32.75;;;;;17.41;38.56;100644.03;5107328;28;8879;-79
2023/01/01 01:18:45;;;;;;;;;35.20;32.60;;;;;17.44;38.24;100634.34;5090409;28;8882;-80
2023/01/01 01:21:15;;;;;;;;;32.20;28.20;;;;;17.49;38.23;100626.41;5108533;28;8856;-78
2023/01/01 01:23:45;;;;;;;;;31.20;29.60;;;;;17.43;38.16;100623.81;5090516;28;8865;-77
2023/01/01 01:26:16;;;;;;;;;30.20;28.00;;;;;17.34;38.46;100624.81;5108236;28;8882;-78
2023/01/01 01:28:45;;;;;;;;;27.40;26.80;;;;;17.39;38.61;100622.09;5091099;28;8841;-79
2023/01/01 01:31:20;;;;;;;;;26.00;23.80;;;;;17.39;38.44;100625.63;5075468;28;8867;-78
2023/01/01 01:33:49;;;;;;;;;24.20;22.40;;;;;17.22;38.76;100625.81;5112296;28;8837;-80
2023/01/01 01:36:19;;;;;;;;;22.40;18.80;;;;;17.20;38.94;100626.69;5093603;28;8885;-78
2023/01/01 01:38:47;;;;;;;;;22.80;21.00;;;;;17.09;38.79;100624.19;5096063;27;8849;-77
2023/01/01 01:41:19;;;;;;;;;24.80;21.20;;;;;16.98;39.43;100624.28;5075251;28;8836;-78
2023/01/01 01:43:58;;;;;;;;;20.00;18.80;;;;;17.13;39.24;100621.50;5108893;28;8951;-77
2023/01/01 01:46:35;;;;;;;;;19.00;18.60;;;;;17.22;38.56;100620.53;5088059;28;8874;-77
2023/01/01 01:49:09;;;;;;;;;24.00;20.80;;;;;17.28;38.90;100612.56;5071466;28;8924;-77
2023/01/01 01:51:40;;;;;;;;;16.80;16.20;;;;;17.17;38.72;100613.56;5088535;28;8959;-78
2023/01/01 01:54:12;;;;;;;;;20.00;20.00;;;;;17.12;38.86;100603.91;5088627;28;8835;-80
2023/01/01 01:56:47;;;;;;;;;20.40;19.40;;;;;17.22;38.85;100611.75;5090349;28;8987;-78
2023/01/01 01:59:18;;;;;;;;;23.60;21.60;;;;;17.33;38.63;100616.03;5073197;28;8955;-79
2023/01/01 02:01:49;;;;;;;;;28.00;25.80;;;;;17.38;38.56;100615.09;5048402;28;8851;-78
2023/01/01 02:04:18;;;;;;;;;31.80;26.20;;;;;17.41;38.39;100610.66;5048040;28;8851;-77
2023/01/01 02:06:47;;;;;;;;;26.80;23.20;;;;;17.39;38.45;100617.72;5048180;28;8882;-79
2023/01/01 02:09:17;;;;;;;;;31.80;30.80;;;;;17.30;38.68;100613.41;5047901;28;8956;-77
2023/01/01 02:11:46;;;;;;;;;30.20;26.60;;;;;17.19;38.76;100614.44;5034986;28;9611;-76
2023/01/01 02:14:14;;;;;;;;;30.00;27.40;;;;;17.25;38.54;100606.44;5050818;28;9680;-80
2023/01/01 02:16:48;;;;;;;;;32.00;27.20;;;;;17.19;38.91;100604.75;5029316;28;8985;-79
2023/01/01 02:19:32;;;;;;;;;26.00;23.40;;;;;17.25;38.49;100606.44;5047272;28;8865;-77
2023/01/01 02:22:13;;;;;;;;;27.60;24.40;;;;;17.28;38.67;100614.34;5047205;28;8988;-78
2023/01/01 02:25:06;;;;;;;;;14.80;14.80;;;;;17.39;38.07;100601.91;5030755;28;8850;-78
2023/01/01 02:27:47;;;;;;;;;22.60;22.40;;;;;17.43;38.67;100603.59;5047193;28;8917;-78
2023/01/01 02:30:18;;;;;;;;;22.20;21.00;;;;;17.46;38.00;100605.31;5030652;28;8847;-77
2023/01/01 02:32:51;;;;;;;;;26.20;22.00;;;;;17.43;38.02;100603.59;5034576;28;8835;-79
2023/01/01 02:35:34;;;;;;;;;27.60;25.60;;;;;17.44;38.58;100612.38;5054004;28;9036;-78
2023/01/01 02:38:14;;;;;;;;;25.00;24.00;;;;;17.58;38.18;100612.22;5070983;28;8879;-79
2023/01/01 02:40:47;;;;;;;;;25.80;24.40;;;;;17.70;37.93;100609.44;5054030;28;8859;-78
2023/01/01 02:43:16;;;;;;;;;25.00;24.60;;;;;17.70;37.79;100618.22;5052634;28;9683;-77
2023/01/01 02:45:53;;;;;;;;;38.00;34.33;;;;;17.81;37.98;100617.22;5065071;28;8852;-78
2023/01/01 02:48:38;;;;;;;;;38.00;31.75;;;;;17.99;37.50;100616.13;5109222;28;8863;-76
2023/01/01 02:51:17;;;;;;;;;42.50;35.75;;;;;17.95;37.63;100617.91;5069366;28;8849;-78
2023/01/01 02:53:52;;;;;;;;;64.25;51.50;;;;;17.83;38.35;100618.94;5028129;28;9666;-76
2023/01/01 02:56:33;;;;;;;;;80.75;64.50;;;;;17.76;39.08;100617.25;5091199;28;8849;-78
2023/01/01 03:02:15;;;;;;;;;57.75;47.75;;;;;17.47;39.25;100623.78;5071974;28;10118;-77
2023/01/01 03:04:57;;;;;;;;;55.75;45.75;;;;;17.27;39.66;100618.72;5038507;28;8843;-79
2023/01/01 03:07:40;;;;;;;;;52.50;41.25;;;;;16.93;40.05;100623.44;5087098;28;8852;-77
2023/01/01 03:10:15;;;;;;;;;72.50;57.00;;;;;17.03;40.24;100626.88;5049885;28;9152;-79
2023/01/01 03:12:53;;;;;;;;;68.00;53.33;;;;;17.07;39.86;100625.94;5049788;28;8849;-78
2023/01/01 03:15:28;;;;;;;;;69.25;55.75;;;;;17.12;39.74;100618.88;5066521;28;8937;-77
2023/01/01 03:18:03;;;;;;;;;76.67;60.00;;;;;17.20;40.01;100621.44;5079042;28;8907;-79
2023/01/01 03:20:38;;;;;;;;;78.75;61.25;;;;;17.17;40.17;100634.66;5086338;28;9384;-78
2023/01/01 03:23:12;;;;;;;;;76.00;59.75;;;;;17.13;39.81;100631.19;5086555;28;9510;-78
2023/01/01 03:25:47;;;;;;;;;79.33;61.67;;;;;17.17;39.93;100639.94;5069457;28;9464;-78
2023/01/01 03:28:20;;;;;;;;;81.00;66.50;;;;;17.12;39.98;100632.06;5085995;28;9240;-78
2023/01/01 03:30:52;;;;;;;;;79.25;64.00;;;;;17.05;40.19;100633.88;5086174;28;9707;-77
2023/01/01 03:33:27;;;;;;;;;100.50;89.75;;;;;17.05;40.39;100630.34;5052478;28;10687;-77
2023/01/01 03:36:01;;;;;;;;;125.50;114.75;;;;;16.99;41.09;100633.06;5069295;28;10958;-80
2023/01/01 03:38:35;;;;;;;;;120.75;107.25;;;;;16.92;40.83;100625.22;5062957;28;12376;-79
2023/01/01 03:41:10;;;;;;;;;106.75;99.50;;;;;16.91;41.21;100625.22;5078511;28;11589;-77
2023/01/01 03:43:48;;;;;;;;;115.00;103.75;;;;;16.89;41.32;100627.88;5091325;28;11599;-79
2023/01/01 03:46:30;;;;;;;;;115.00;103.50;;;;;16.88;41.50;100631.41;5108203;28;11553;-80
2023/01/01 03:49:00;;;;;;;;;136.00;124.00;;;;;16.79;41.52;100630.59;5114095;27;11535;-80
2023/01/01 03:51:54;;;;;;;;;131.75;117.50;;;;;16.88;41.29;100634.03;5091168;28;11597;-80
2023/01/01 03:54:30;;;;;;;;;125.25;108.25;;;;;16.77;41.96;100633.22;5108697;28;11593;-79
2023/01/01 03:57:09;;;;;;;;;107.00;99.75;;;;;16.79;41.78;100643.75;5090798;28;11601;-77
2023/01/01 03:59:43;;;;;;;;;95.25;87.75;;;;;16.74;41.36;100635.88;5107885;28;11541;-80
2023/01/01 04:02:18;;;;;;;;;77.00;64.00;;;;;16.71;41.47;100643.78;5107392;28;10836;-79
2023/01/01 04:04:49;;;;;;;;;55.50;40.50;;;;;16.69;40.44;100629.75;5090552;28;9614;-77
2023/01/01 04:07:19;;;;;;;;;58.00;48.00;;;;;16.64;40.80;100629.81;5108965;28;8845;-78
2023/01/01 04:09:51;;;;;;;;;62.75;48.25;;;;;16.65;40.58;100628.91;5107772;28;8883;-77
2023/01/01 04:12:21;;;;;;;;;47.50;40.25;;;;;16.47;40.93;100635.22;5107695;28;8883;-78
2023/01/01 04:14:50;;;;;;;;;40.50;36.00;;;;;16.46;40.92;100635.22;5124883;27;8849;-80
2023/01/01 04:17:19;;;;;;;;;51.25;40.50;;;;;16.31;41.57;100634.47;5108635;28;8841;-78
2023/01/01 04:19:49;;;;;;;;;46.75;38.00;;;;;16.23;41.13;100636.25;5124834;27;8868;-78
2023/01/01 04:22:22;;;;;;;;;36.75;33.00;;;;;16.29;41.27;100627.44;5110758;27;8826;-78
2023/01/01 04:24:51;;;;;;;;;44.75;36.75;;;;;16.28;41.20;100623.94;5129518;27;8869;-78
2023/01/01 04:27:20;;;;;;;;;35.75;31.75;;;;;16.45;40.92;100620.31;5109067;27;9748;-80
2023/01/01 04:29:49;;;;;;;;;34.00;32.00;;;;;16.34;40.72;100629.16;5107469;28;8891;-77
2023/01/01 04:32:18;;;;;;;;;28.50;27.00;;;;;16.43;40.63;100630.84;5039473;28;8849;-76
2023/01/01 04:34:46;;;;;;;;;46.25;40.25;;;;;16.47;40.96;100619.41;5107296;28;9562;-80
2023/01/01 04:37:17;;;;;;;;;41.50;35.25;;;;;16.46;41.07;100628.19;5091108;28;8841;-78
2023/01/01 04:39:45;;;;;;;;;41.00;36.50;;;;;16.56;40.73;100614.09;5094876;28;9622;-78
2023/01/01 04:42:14;;;;;;;;;24.00;20.20;;;;;16.62;40.27;100612.28;5107280;28;8841;-78
2023/01/01 04:44:43;;;;;;;;;23.60;20.00;;;;;16.69;40.03;100612.22;5090246;28;8856;-78
2023/01/01 04:47:12;;;;;;;;;22.60;20.60;;;;;16.73;40.26;100616.56;5090415;28;8849;-77
2023/01/01 04:49:40;;;;;;;;;30.00;27.60;;;;;16.76;40.08;100613.91;5090283;28;9566;-78
2023/01/01 04:52:09;;;;;;;;;29.40;26.00;;;;;16.72;39.93;100620.06;5106926;28;8857;-78
2023/01/01 04:54:39;;;;;;;;;29.00;27.00;;;;;16.63;40.49;100617.53;5085233;28;8997;-79
2023/01/01 04:57:08;;;;;;;;;40.50;34.00;;;;;16.40;40.80;100628.22;5068894;28;9537;-78
2023/01/01 04:59:37;;;;;;;;;38.00;34.25;;;;;16.36;41.18;100630.00;5085284;28;8855;-78
2023/01/01 05:02:07;;;;;;;;;10.75;9.00;;;;;16.50;40.51;100629.94;5085918;28;8944;-77
2023/01/01 05:04:35;;;;;;;;;39.25;36.25;;;;;16.47;41.02;100634.34;5068555;28;8843;-79
2023/01/01 05:07:04;;;;;;;;;54.75;43.75;;;;;16.62;40.71;100631.59;5052594;28;8978;-78
2023/01/01 05:09:33;;;;;;;;;45.00;37.50;;;;;16.67;40.40;100635.06;5052628;28;8833;-77
2023/01/01 05:12:04;;;;;;;;;43.25;36.00;;;;;16.71;40.20;100636.78;5019407;28;8830;-80
2023/01/01 05:14:33;;;;;;;;;35.75;34.50;;;;;16.75;40.41;100640.28;5051952;28;9015;-78
2023/01/01 05:17:02;;;;;;;;;36.50;34.00;;;;;16.81;40.29;100632.31;5070125;28;8853;-79
2023/01/01 05:19:31;;;;;;;;;26.00;23.80;;;;;16.82;39.88;100630.53;5071709;28;8989;-79
2023/01/01 05:22:00;;;;;;;;;26.20;24.20;;;;;16.82;39.86;100625.28;5088966;28;8835;-77
2023/01/01 05:24:37;;;;;;;;;21.40;21.40;;;;;16.84;40.07;100623.53;5071906;28;8967;-79
2023/01/01 05:27:07;;;;;;;;;18.20;17.00;;;;;16.85;40.09;100626.16;5113070;27;8850;-77
2023/01/01 05:29:37;;;;;;;;;17.60;15.80;;;;;16.84;39.81;100634.97;5112925;27;8865;-76
2023/01/01 05:32:06;;;;;;;;;21.80;21.00;;;;;16.91;39.65;100631.38;5112779;27;8947;-78
2023/01/01 05:34:33;;;;;;;;;20.60;19.20;;;;;16.91;39.90;100627.88;5129973;27;8833;-77
2023/01/01 05:37:01;;;;;;;;;24.40;20.40;;;;;16.91;40.14;100635.75;5130009;27;8941;-78
2023/01/01 05:39:30;;;;;;;;;20.80;19.00;;;;;16.83;40.52;100637.59;5112759;27;8846;-77
2023/01/01 05:41:59;;;;;;;;;17.20;16.40;;;;;16.80;40.32;100637.59;5129535;27;8852;-78
2023/01/01 05:44:29;;;;;;;;;16.00;16.00;;;;;16.80;40.65;100643.72;5109684;28;8873;-78
2023/01/01 05:46:58;;;;;;;;;16.00;15.20;;;;;16.90;40.08;100636.63;5110435;28;9668;-78
2023/01/01 05:49:27;;;;;;;;;19.00;16.40;;;;;16.89;40.01;100645.44;5110471;28;8845;-79
2023/01/01 05:51:56;;;;;;;;;25.60;22.40;;;;;16.70;40.77;100637.66;5110528;28;8845;-80
2023/01/01 05:54:24;;;;;;;;;22.60;21.20;;;;;16.69;40.74;100645.56;5103716;27;8846;-78
2023/01/01 05:56:53;;;;;;;;;28.40;25.40;;;;;16.82;40.79;100646.34;5113336;27;8893;-80
2023/01/01 05:59:21;;;;;;;;;26.80;26.40;;;;;16.85;40.41;100646.38;5132058;27;8874;-78
2023/01/01 06:01:52;;;;;;;;;25.00;24.00;;;;;16.90;39.82;100647.19;5091499;28;8815;-78
2023/01/01 06:04:21;;;;;;;;;30.00;26.60;;;;;16.93;39.79;100652.44;5091741;28;8875;-79
2023/01/01 06:06:50;;;;;;;;;21.20;21.20;;;;;16.95;40.01;100654.16;5091753;28;8904;-78
2023/01/01 06:09:19;;;;;;;;;25.40;24.60;;;;;16.96;39.77;100657.69;5075084;28;8852;-79
2023/01/01 06:11:48;;;;;;;;;23.60;20.00;;;;;16.98;40.01;100655.03;5091453;28;9726;-80
2023/01/01 06:14:17;;;;;;;;;28.60;26.60;;;;;17.00;39.72;100661.16;5091621;28;8960;-76
2023/01/01 06:16:46;;;;;;;;;27.40;26.60;;;;;16.99;40.09;100665.53;5108433;28;8840;-77
2023/01/01 06:19:16;;;;;;;;;24.20;23.00;;;;;16.99;39.74;100665.53;5091004;28;8885;-77
2023/01/01 06:21:45;;;;;;;;;28.60;21.00;;;;;17.00;40.01;100666.44;5091087;28;9644;-77
2023/01/01 06:24:13;;;;;;;;;13.20;9.20;;;;;16.87;40.40;100670.94;5091570;28;9028;-78
2023/01/01 06:26:42;;;;;;;;;24.00;21.20;;;;;16.85;40.36;100673.56;5074565;28;8828;-77
2023/01/01 06:29:11;;;;;;;;;26.20;21.60;;;;;16.93;39.97;100676.16;5090880;28;8886;-79
2023/01/01 06:31:40;;;;;;;;;35.75;33.75;;;;;16.92;40.25;100680.56;5031180;28;8850;-78
2023/01/01 06:34:09;;;;;;;;;26.80;24.40;;;;;16.90;40.30;100684.06;5030543;28;8874;-79
2023/01/01 06:36:39;;;;;;;;;30.20;27.20;;;;;17.00;40.05;100692.78;5030739;28;8842;-78
2023/01/01 06:39:08;;;;;;;;;49.50;39.50;;;;;17.01;39.80;100699.78;5043853;28;8892;-79
2023/01/01 06:41:36;;;;;;;;;38.25;34.50;;;;;16.96;40.04;100691.94;5104770;28;8887;-79
2023/01/01 06:44:05;;;;;;;;;40.50;36.25;;;;;16.97;40.19;100701.59;5087615;28;8849;-77
2023/01/01 06:46:35;;;;;;;;;38.00;34.50;;;;;17.00;40.05;100705.97;5070538;28;8853;-79
2023/01/01 06:49:06;;;;;;;;;37.00;31.50;;;;;17.01;39.85;100702.44;5066947;28;8956;-78
2023/01/01 06:51:39;;;;;;;;;37.75;34.75;;;;;17.03;40.07;100704.19;5083984;28;8898;-78
2023/01/01 06:54:09;;;;;;;;;31.60;27.40;;;;;17.02;39.89;100709.47;5050262;28;8885;-78
2023/01/01 06:56:39;;;;;;;;;81.67;64.33;;;;;17.05;40.03;100714.69;5050084;28;8894;-80
2023/01/01 06:59:07;;;;;;;;;56.75;45.50;;;;;17.08;40.20;100712.91;5001135;28;9268;-79
2023/01/01 07:01:38;;;;;;;;;37.00;34.25;;;;;17.13;39.96;100720.78;5083454;28;8883;-79
2023/01/01 07:04:14;;;;;;;;;16.20;15.60;;;;;17.15;39.95;100719.88;5107109;27;8841;-78
2023/01/01 07:06:45;;;;;;;;;24.60;22.40;;;;;17.11;39.81;100720.78;5040932;28;8822;-78
2023/01/01 07:09:13;;;;;;;;;28.00;24.40;;;;;17.22;39.49;100727.72;5090270;28;8929;-78
2023/01/01 07:11:42;;;;;;;;;23.60;22.40;;;;;17.33;39.33;100728.50;5074020;28;8868;-79
2023/01/01 07:14:11;;;;;;;;;26.40;26.40;;;;;17.40;39.25;100727.56;5090171;28;8972;-78
2023/01/01 07:16:40;;;;;;;;;42.25;36.75;;;;;17.47;39.27;100725.75;5090465;28;8837;-78
2023/01/01 07:19:08;;;;;;;;;43.25;37.75;;;;;17.57;39.20;100735.31;5089980;28;8857;-79
2023/01/01 07:21:43;;;;;;;;;32.75;31.50;;;;;17.71;39.12;100738.69;5090555;28;8947;-79
2023/01/01 07:24:14;;;;;;;;;36.75;26.75;;;;;17.75;38.95;100736.91;5090043;28;8895;-79
2023/01/01 07:26:44;;;;;;;;;33.25;32.50;;;;;17.78;38.78;100736.84;5090046;28;8841;-79
2023/01/01 07:29:13;;;;;;;;;38.25;35.50;;;;;17.86;38.83;100735.03;5106187;28;8825;-77
2023/01/01 07:31:44;;;;;;;;;40.00;36.00;;;;;17.91;39.03;100732.34;5090115;28;9681;-78
2023/01/01 07:34:15;;;;;;;;;36.75;32.75;;;;;17.99;38.60;100732.25;5072658;28;8845;-79
2023/01/01 07:36:44;;;;;;;;;38.00;32.75;;;;;18.04;38.34;100741.00;5069641;28;8828;-78
2023/01/01 07:39:14;;;;;;;;;46.75;38.25;;;;;18.10;38.23;100733.84;5088305;28;8855;-78
2023/01/01 07:41:42;;;;;;;;;29.75;27.50;;;;;18.21;38.00;100735.50;5106905;28;8829;-79
2023/01/01 07:44:13;;;;;;;;;127.50;116.75;;;;;18.28;37.95;100734.53;5072864;28;9741;-79
2023/01/01 07:46:42;;;;;;;;;92.25;82.75;;;;;18.38;37.99;100737.94;5072659;28;11521;-79
2023/01/01 07:49:11;;;;;;;;;54.25;43.75;;;;;18.46;37.83;100725.47;5106592;28;11452;-80
2023/01/01 07:51:40;;;;;;;;;44.25;38.25;;;;;18.56;37.58;100726.22;5072382;28;8849;-78
2023/01/01 07:54:09;;;;;;;;;44.50;38.25;;;;;18.60;37.44;100728.81;5072760;28;9773;-79
2023/01/01 07:56:39;;;;;;;;;49.25;40.25;;;;;18.65;37.25;100731.38;5089407;28;8944;-78
2023/01/01 07:59:08;;;;;;;;;56.75;47.00;;;;;18.75;37.51;100729.47;5089667;28;8841;-79
2023/01/01 08:01:37;;;;;;;;;52.50;44.00;;;;;18.81;37.19;100727.66;5055499;28;8871;-79
2023/01/01 08:04:06;;;;;;;;;47.50;41.75;;;;;18.91;37.04;100727.50;5089473;28;10004;-78
2023/01/01 08:06:35;;;;;;;;;63.00;47.75;;;;;19.03;37.27;100719.34;5089308;28;8877;-78
2023/01/01 08:09:04;;;;;;;;;57.00;46.75;;;;;19.13;36.90;100723.63;5127836;27;8916;-80
2023/01/01 08:11:32;;;;;;;;;171.25;155.75;;;;;19.18;36.83;100720.88;5129720;27;8830;-80
2023/01/01 08:14:03;;;;;;;;;80.50;65.00;;;;;19.28;36.64;100718.06;5128404;27;11594;-81
2023/01/01 08:16:32;;;;;;;;;54.50;45.50;;;;;19.39;36.46;100725.78;5111420;27;9689;-78
2023/01/01 08:19:01;;;;;;;;;45.50;35.50;;;;;19.51;36.33;100718.50;5145533;27;8839;-80
2023/01/01 08:21:30;;;;;;;;;48.50;41.75;;;;;19.62;36.10;100720.09;5076658;27;8839;-79
2023/01/01 08:23:59;;;;;;;;;49.75;40.75;;;;;19.72;36.04;100711.97;5128002;27;8907;-80
2023/01/01 08:26:29;;;;;;;;;50.00;42.25;;;;;19.80;36.03;100710.06;5127972;27;8842;-81
2023/01/01 08:28:58;;;;;;;;;47.00;40.00;;;;;19.87;35.88;100706.41;5110482;27;8869;-78
2023/01/01 08:31:28;;;;;;;;;56.00;45.75;;;;;19.98;35.99;100711.47;5127979;27;8862;-79
2023/01/01 08:33:57;;;;;;;;;63.25;49.25;;;;;20.06;36.03;100704.25;5111130;27;8855;-80
2023/01/01 08:36:26;;;;;;;;;68.25;53.25;;;;;20.17;36.04;100701.34;5111138;27;8861;-82
2023/01/01 08:38:55;;;;;;;;;56.25;45.75;;;;;20.27;35.59;100694.97;5127845;27;8846;-78
2023/01/01 08:41:24;;;;;;;;;52.25;42.25;;;;;20.36;34.96;100701.81;5132336;27;8866;-79
2023/01/01 08:43:52;;;;;;;;;54.75;44.50;;;;;20.43;35.25;100693.72;5130943;27;8858;-80
2023/01/01 08:46:21;;;;;;;;;34.50;32.00;;;;;20.46;35.00;100700.72;5112173;28;8852;-78
2023/01/01 08:48:51;;;;;;;;;31.40;31.20;;;;;20.42;35.08;100699.06;5094796;28;8861;-77
2023/01/01 08:51:21;;;;;;;;;29.00;26.40;;;;;20.45;34.74;100705.16;5111151;28;8857;-78
2023/01/01 08:53:49;;;;;;;;;34.40;31.60;;;;;20.51;34.75;100696.19;5113557;28;8829;-78
2023/01/01 08:56:20;;;;;;;;;31.60;30.80;;;;;20.58;34.54;100686.31;5112072;28;8849;-79
2023/01/01 08:58:49;;;;;;;;;34.75;32.50;;;;;20.55;34.53;100681.97;5111596;28;8844;-78
2023/01/01 09:01:20;;;;;;;;;45.25;37.75;;;;;20.50;34.40;100681.19;5121950;27;8868;-78
2023/01/01 09:03:51;;;;;;;;;27.20;23.20;;;;;20.62;34.07;100680.06;5114680;27;8831;-81
2023/01/01 09:06:20;;;;;;;;;23.40;20.20;;;;;20.59;34.12;100678.31;5133285;27;8819;-80
2023/01/01 09:08:48;;;;;;;;;23.40;22.20;;;;;20.51;33.85;100677.66;5131563;27;8870;-78
2023/01/01 09:11:23;;;;;;;;;22.60;21.20;;;;;20.63;33.95;100665.91;5131515;27;8843;-79
2023/01/01 09:13:52;;;;;;;;;22.80;19.80;;;;;20.57;33.90;100661.59;5114314;27;8838;-80
2023/01/01 09:16:22;;;;;;;;;21.60;21.40;;;;;20.60;34.01;100647.41;5131872;27;8846;-79
2023/01/01 09:18:52;;;;;;;;;25.40;21.80;;;;;20.50;34.22;100657.34;5114428;27;8843;-79
2023/01/01 09:21:21;;;;;;;;;24.40;21.20;;;;;20.61;33.91;100643.88;5136123;27;8865;-77
2023/01/01 09:23:50;;;;;;;;;26.20;25.40;;;;;20.71;33.78;100644.50;5093874;28;8825;-79
2023/01/01 09:26:19;;;;;;;;;24.40;19.20;;;;;20.66;33.68;100636.66;5093509;28;8837;-79
2023/01/01 09:28:47;;;;;;;;;28.20;27.20;;;;;20.80;33.74;100637.19;5110559;28;8853;-79
2023/01/01 09:31:16;;;;;;;;;37.25;32.75;;;;;20.68;33.77;100647.22;5093459;28;8871;-78
2023/01/01 09:33:45;;;;;;;;;26.80;25.00;;;;;20.72;33.76;100639.19;5110233;28;8838;-79
2023/01/01 09:36:28;;;;;;;;;26.40;26.40;;;;;20.97;33.65;100650.03;5093713;28;8845;-80
2023/01/01 09:38:58;;;;;;;;;34.75;31.25;;;;;20.84;33.87;100636.19;5110249;28;8860;-80
2023/01/01 09:41:41;;;;;;;;;56.50;46.50;;;;;21.03;33.78;100633.94;5110120;28;8879;-79
2023/01/01 09:44:22;;;;;;;;;27.60;25.20;;;;;21.05;33.44;100633.91;5093178;28;8825;-78
2023/01/01 09:46:52;;;;;;;;;25.20;23.60;;;;;21.06;33.17;100637.41;5093033;28;8877;-80
2023/01/01 09:49:31;;;;;;;;;81.50;72.00;;;;;21.19;33.48;100623.81;5092766;28;8875;-81
2023/01/01 09:52:04;;;;;;;;;25.60;24.40;;;;;21.15;32.96;100627.47;5109317;28;9820;-79
2023/01/01 09:54:37;;;;;;;;;26.40;25.20;;;;;21.21;32.88;100621.13;5109779;28;8841;-79
2023/01/01 09:57:12;;;;;;;;;25.20;24.60;;;;;21.22;32.95;100623.72;5093952;28;8829;-79
2023/01/01 09:59:47;;;;;;;;;27.00;26.60;;;;;21.18;32.88;100615.88;5111859;28;8873;-80
2023/01/01 10:02:35;;;;;;;;;28.40;26.00;;;;;21.33;32.80;100614.59;5111266;28;8868;-78
2023/01/01 10:05:19;;;;;;;;;24.40;24.40;;;;;21.34;32.86;100611.91;5109838;28;8853;-79
2023/01/01 10:07:56;;;;;;;;;22.40;19.40;;;;;21.38;32.84;100608.25;5109785;28;8903;-80
2023/01/01 10:10:36;;;;;;;;;53.50;43.75;;;;;21.41;32.64;100609.94;5093015;28;8865;-78
2023/01/01 10:13:15;;;;;;;;;61.00;48.00;;;;;21.43;32.71;100608.97;5110860;28;8852;-80
2023/01/01 10:15:55;;;;;;;;;23.60;22.60;;;;;21.48;32.61;100608.03;5119138;28;8869;-79
2023/01/01 10:18:32;;;;;;;;;21.80;20.40;;;;;21.49;32.84;100607.09;5119514;28;8952;-79
2023/01/01 10:21:07;;;;;;;;;21.60;21.60;;;;;21.52;32.71;100599.06;5128362;27;8877;-78
2023/01/01 10:23:43;;;;;;;;;24.40;22.20;;;;;21.54;32.75;100595.44;5139609;27;8837;-79
2023/01/01 10:26:17;;;;;;;;;20.40;20.40;;;;;21.47;32.61;100599.19;5120526;27;8969;-79
2023/01/01 10:28:54;;;;;;;;;22.40;18.40;;;;;21.58;32.71;100598.88;5129501;27;8856;-78
2023/01/01 10:31:31;;;;;;;;;19.80;19.20;;;;;21.65;32.63;100589.81;5057690;28;8849;-80
2023/01/01 10:34:07;;;;;;;;;28.40;25.60;;;;;21.67;32.86;100587.13;5092989;28;8861;-80
2023/01/01 10:36:35;;;;;;;;;25.60;24.60;;;;;21.69;32.55;100579.97;5109419;28;8829;-79
2023/01/01 10:39:06;;;;;;;;;26.40;25.60;;;;;21.76;32.82;100577.09;5076648;28;8853;-81
2023/01/01 10:41:34;;;;;;;;;29.20;26.80;;;;;21.84;32.92;100570.69;5106847;28;8960;-79
2023/01/01 10:44:03;;;;;;;;;28.80;26.40;;;;;21.87;32.71;100563.50;5090500;28;8921;-79
2023/01/01 10:46:37;;;;;;;;;40.25;33.00;;;;;21.98;32.85;100558.72;5073357;28;8894;-79
2023/01/01 10:49:10;;;;;;;;;40.50;35.00;;;;;22.00;32.57;100563.97;5089981;28;8886;-80
2023/01/01 10:51:44;;;;;;;;;34.60;30.60;;;;;22.07;32.58;100560.19;5072866;28;8867;-79
2023/01/01 10:54:34;;;;;;;;;29.00;27.40;;;;;22.34;32.55;100552.28;5089883;28;8836;-79
2023/01/01 10:57:14;;;;;;;;;24.80;24.80;;;;;22.38;32.28;100548.59;5055155;28;8847;-80
2023/01/01 10:59:44;;;;;;;;;28.00;28.00;;;;;22.42;32.42;100544.06;5089265;28;8844;-82
2023/01/01 11:02:23;;;;;;;;;28.50;27.75;;;;;22.48;32.42;100541.22;5087834;28;8847;-81
2023/01/01 11:05:13;;;;;;;;;36.75;31.00;;;;;22.69;32.03;100539.59;5071735;28;8836;-79
2023/01/01 11:07:48;;;;;;;;;28.80;27.00;;;;;22.61;31.91;100531.91;5071388;28;8828;-80
2023/01/01 11:10:22;;;;;;;;;28.80;28.80;;;;;22.68;31.80;100527.22;5070665;28;8851;-78
2023/01/01 11:12:52;;;;;;;;;30.80;26.00;;;;;22.67;31.72;100523.69;5088472;28;8952;-80
2023/01/01 11:15:39;;;;;;;;;31.80;29.80;;;;;22.68;31.87;100524.56;5088675;28;8844;-81
2023/01/01 11:18:14;;;;;;;;;33.25;30.00;;;;;22.76;31.87;100517.19;5107615;28;8835;-79
2023/01/01 11:20:44;;;;;;;;;36.75;33.00;;;;;22.63;32.05;100521.19;5092290;27;8839;-81
2023/01/01 11:23:30;;;;;;;;;39.00;34.50;;;;;22.71;32.05;100508.50;5127984;27;8994;-79
2023/01/01 11:26:03;;;;;;;;;36.00;31.75;;;;;22.63;32.29;100513.19;5111259;27;8854;-81
2023/01/01 11:28:33;;;;;;;;;36.50;30.50;;;;;22.62;31.96;100508.81;5110290;27;8869;-79
2023/01/01 11:31:14;;;;;;;;;39.25;34.50;;;;;22.71;31.61;100501.38;5093411;27;8826;-78
2023/01/01 11:33:49;;;;;;;;;41.50;34.75;;;;;22.66;32.30;100497.16;5036845;28;8861;-82
2023/01/01 11:36:23;;;;;;;;;34.75;30.00;;;;;22.61;32.16;100494.69;5036574;28;8887;-80
2023/01/01 11:39:05;;;;;;;;;28.80;26.80;;;;;22.62;31.78;100493.72;5086518;28;8834;-78
2023/01/01 11:41:43;;;;;;;;;49.00;41.75;;;;;22.52;31.86;100485.22;5087295;28;8934;-81